Terminal Aerodrome Forecast
Issued by NWS Sterling, VA

Home | Current Version | Previous Version | Text Only | Print | Product List | Glossary On
Versions: 1 2 3 4 5 6 7 8 9 10 11 12 13 14 15
000
FTUS41 KLWX 280500
TAFMRB
TAF
KMRB 280538Z 2806/2906 30009KT P6SM BKN070
     FM281300 32010KT P6SM SCT050
     FM282200 28004KT P6SM SCT100
     FM290000 00000KT P6SM BKN080=

USA.gov is the U.S. government's official web portal to all federal, state and local government web resources and services.